sensor_id;sensor_type;location;lat;lon;timestamp;P1;durP1;ratioP1;P2;durP2;ratioP2
27983;SDS011;15317;50.360;8.726;2023-12-04T00:01:24;26.00;;;20.60;;
27983;SDS011;15317;50.360;8.726;2023-12-04T00:06:28;25.77;;;20.30;;
27983;SDS011;15317;50.360;8.726;2023-12-04T00:11:32;25.53;;;20.23;;
27983;SDS011;15317;50.360;8.726;2023-12-04T00:16:36;26.43;;;20.43;;
27983;SDS011;15317;50.360;8.726;2023-12-04T00:21:39;26.37;;;19.93;;
27983;SDS011;15317;50.360;8.726;2023-12-04T00:26:44;27.83;;;19.80;;
27983;SDS011;15317;50.360;8.726;2023-12-04T00:31:47;28.33;;;20.83;;
27983;SDS011;15317;50.360;8.726;2023-12-04T00:36:50;24.77;;;19.43;;
27983;SDS011;15317;50.360;8.726;2023-12-04T00:41:55;27.17;;;20.73;;
27983;SDS011;15317;50.360;8.726;2023-12-04T00:46:58;25.57;;;20.97;;
27983;SDS011;15317;50.360;8.726;2023-12-04T00:52:02;24.87;;;18.90;;
27983;SDS011;15317;50.360;8.726;2023-12-04T00:57:07;27.57;;;20.07;;
27983;SDS011;15317;50.360;8.726;2023-12-04T01:02:11;25.73;;;19.83;;
27983;SDS011;15317;50.360;8.726;2023-12-04T01:07:14;25.33;;;19.33;;
27983;SDS011;15317;50.360;8.726;2023-12-04T01:12:19;26.53;;;21.20;;
27983;SDS011;15317;50.360;8.726;2023-12-04T01:17:23;29.17;;;20.47;;
27983;SDS011;15317;50.360;8.726;2023-12-04T01:22:26;25.43;;;20.03;;
27983;SDS011;15317;50.360;8.726;2023-12-04T01:27:30;27.20;;;21.13;;
27983;SDS011;15317;50.360;8.726;2023-12-04T01:32:34;25.17;;;19.30;;
27983;SDS011;15317;50.360;8.726;2023-12-04T01:37:37;26.97;;;21.43;;
27983;SDS011;15317;50.360;8.726;2023-12-04T01:42:43;25.67;;;19.70;;
27983;SDS011;15317;50.360;8.726;2023-12-04T01:47:47;26.17;;;20.23;;
27983;SDS011;15317;50.360;8.726;2023-12-04T01:52:51;26.20;;;20.00;;
27983;SDS011;15317;50.360;8.726;2023-12-04T01:57:56;28.30;;;20.40;;
27983;SDS011;15317;50.360;8.726;2023-12-04T02:03:01;26.10;;;19.67;;
27983;SDS011;15317;50.360;8.726;2023-12-04T02:08:04;25.90;;;19.83;;
27983;SDS011;15317;50.360;8.726;2023-12-04T02:13:09;27.33;;;20.80;;
27983;SDS011;15317;50.360;8.726;2023-12-04T02:18:13;27.40;;;19.77;;
27983;SDS011;15317;50.360;8.726;2023-12-04T02:23:18;27.17;;;20.70;;
27983;SDS011;15317;50.360;8.726;2023-12-04T02:28:23;26.83;;;20.17;;
27983;SDS011;15317;50.360;8.726;2023-12-04T02:33:29;27.83;;;20.33;;
27983;SDS011;15317;50.360;8.726;2023-12-04T02:38:36;29.53;;;21.37;;
27983;SDS011;15317;50.360;8.726;2023-12-04T02:43:41;27.50;;;20.80;;
27983;SDS011;15317;50.360;8.726;2023-12-04T02:48:45;26.63;;;20.43;;
27983;SDS011;15317;50.360;8.726;2023-12-04T02:53:48;27.93;;;21.67;;
27983;SDS011;15317;50.360;8.726;2023-12-04T02:58:53;26.67;;;20.37;;
27983;SDS011;15317;50.360;8.726;2023-12-04T03:03:56;27.50;;;21.57;;
27983;SDS011;15317;50.360;8.726;2023-12-04T03:09:00;27.30;;;20.87;;
27983;SDS011;15317;50.360;8.726;2023-12-04T03:14:05;28.83;;;20.50;;
27983;SDS011;15317;50.360;8.726;2023-12-04T03:19:09;28.07;;;20.60;;
27983;SDS011;15317;50.360;8.726;2023-12-04T03:24:12;28.60;;;20.77;;
27983;SDS011;15317;50.360;8.726;2023-12-04T03:29:17;28.10;;;21.33;;
27983;SDS011;15317;50.360;8.726;2023-12-04T03:34:21;28.63;;;21.67;;
27983;SDS011;15317;50.360;8.726;2023-12-04T03:39:24;28.87;;;21.57;;
27983;SDS011;15317;50.360;8.726;2023-12-04T03:44:29;28.50;;;20.87;;
27983;SDS011;15317;50.360;8.726;2023-12-04T03:49:32;29.20;;;21.40;;
27983;SDS011;15317;50.360;8.726;2023-12-04T03:54:36;29.40;;;21.70;;
27983;SDS011;15317;50.360;8.726;2023-12-04T03:59:40;30.60;;;22.07;;
27983;SDS011;15317;50.360;8.726;2023-12-04T04:04:44;28.37;;;20.73;;
27983;SDS011;15317;50.360;8.726;2023-12-04T04:09:47;28.20;;;21.30;;
27983;SDS011;15317;50.360;8.726;2023-12-04T04:14:51;30.37;;;21.43;;
27983;SDS011;15317;50.360;8.726;2023-12-04T04:19:54;28.40;;;20.77;;
27983;SDS011;15317;50.360;8.726;2023-12-04T04:24:58;28.83;;;21.30;;
27983;SDS011;15317;50.360;8.726;2023-12-04T04:30:03;28.07;;;20.27;;
27983;SDS011;15317;50.360;8.726;2023-12-04T04:35:08;29.03;;;20.83;;
27983;SDS011;15317;50.360;8.726;2023-12-04T04:40:11;27.03;;;20.63;;
27983;SDS011;15317;50.360;8.726;2023-12-04T04:45:16;28.53;;;21.47;;
27983;SDS011;15317;50.360;8.726;2023-12-04T04:50:19;29.70;;;21.80;;
27983;SDS011;15317;50.360;8.726;2023-12-04T04:55:23;30.30;;;22.93;;
27983;SDS011;15317;50.360;8.726;2023-12-04T05:00:47;30.13;;;21.00;;
27983;SDS011;15317;50.360;8.726;2023-12-04T05:05:50;30.17;;;22.07;;
27983;SDS011;15317;50.360;8.726;2023-12-04T05:10:54;28.83;;;21.40;;
27983;SDS011;15317;50.360;8.726;2023-12-04T05:15:58;31.17;;;22.67;;
27983;SDS011;15317;50.360;8.726;2023-12-04T05:21:02;28.27;;;21.97;;
27983;SDS011;15317;50.360;8.726;2023-12-04T05:26:06;30.73;;;22.67;;
27983;SDS011;15317;50.360;8.726;2023-12-04T05:31:11;30.87;;;21.93;;
27983;SDS011;15317;50.360;8.726;2023-12-04T05:36:14;28.47;;;21.70;;
27983;SDS011;15317;50.360;8.726;2023-12-04T05:41:18;30.17;;;22.70;;
27983;SDS011;15317;50.360;8.726;2023-12-04T05:46:23;29.83;;;21.80;;
27983;SDS011;15317;50.360;8.726;2023-12-04T05:51:26;29.17;;;21.80;;
27983;SDS011;15317;50.360;8.726;2023-12-04T05:56:31;28.73;;;21.43;;
27983;SDS011;15317;50.360;8.726;2023-12-04T06:01:36;30.30;;;21.93;;
27983;SDS011;15317;50.360;8.726;2023-12-04T06:06:39;30.07;;;22.63;;
27983;SDS011;15317;50.360;8.726;2023-12-04T06:11:43;28.23;;;21.20;;
27983;SDS011;15317;50.360;8.726;2023-12-04T06:16:50;27.63;;;20.97;;
27983;SDS011;15317;50.360;8.726;2023-12-04T06:21:53;26.63;;;21.27;;
27983;SDS011;15317;50.360;8.726;2023-12-04T06:26:57;27.87;;;21.10;;
27983;SDS011;15317;50.360;8.726;2023-12-04T06:32:02;28.57;;;21.97;;
27983;SDS011;15317;50.360;8.726;2023-12-04T06:37:07;31.77;;;22.33;;
27983;SDS011;15317;50.360;8.726;2023-12-04T06:42:13;29.33;;;22.17;;
27983;SDS011;15317;50.360;8.726;2023-12-04T06:47:19;31.10;;;22.23;;
27983;SDS011;15317;50.360;8.726;2023-12-04T06:52:25;28.50;;;21.57;;
27983;SDS011;15317;50.360;8.726;2023-12-04T06:57:29;29.40;;;21.90;;
27983;SDS011;15317;50.360;8.726;2023-12-04T07:02:33;30.10;;;22.37;;
27983;SDS011;15317;50.360;8.726;2023-12-04T07:07:37;29.93;;;22.93;;
27983;SDS011;15317;50.360;8.726;2023-12-04T07:12:40;29.93;;;22.73;;
27983;SDS011;15317;50.360;8.726;2023-12-04T07:17:45;29.43;;;21.60;;
27983;SDS011;15317;50.360;8.726;2023-12-04T07:22:48;29.57;;;22.43;;
27983;SDS011;15317;50.360;8.726;2023-12-04T07:27:51;27.60;;;21.53;;
27983;SDS011;15317;50.360;8.726;2023-12-04T07:32:56;30.60;;;23.13;;
27983;SDS011;15317;50.360;8.726;2023-12-04T07:37:59;30.77;;;22.17;;
27983;SDS011;15317;50.360;8.726;2023-12-04T07:43:02;28.87;;;21.60;;
27983;SDS011;15317;50.360;8.726;2023-12-04T07:48:06;29.53;;;22.17;;
27983;SDS011;15317;50.360;8.726;2023-12-04T07:53:10;29.20;;;22.37;;
27983;SDS011;15317;50.360;8.726;2023-12-04T07:58:14;29.40;;;22.10;;
27983;SDS011;15317;50.360;8.726;2023-12-04T08:03:18;27.63;;;20.43;;
27983;SDS011;15317;50.360;8.726;2023-12-04T08:08:21;28.93;;;20.83;;
27983;SDS011;15317;50.360;8.726;2023-12-04T08:13:24;28.90;;;20.37;;
27983;SDS011;15317;50.360;8.726;2023-12-04T08:18:29;23.90;;;19.47;;
27983;SDS011;15317;50.360;8.726;2023-12-04T08:23:32;24.30;;;18.67;;
27983;SDS011;15317;50.360;8.726;2023-12-04T08:28:35;22.97;;;18.27;;
27983;SDS011;15317;50.360;8.726;2023-12-04T08:33:40;23.43;;;18.13;;
27983;SDS011;15317;50.360;8.726;2023-12-04T08:38:43;22.50;;;17.80;;
27983;SDS011;15317;50.360;8.726;2023-12-04T08:43:47;23.87;;;18.43;;
27983;SDS011;15317;50.360;8.726;2023-12-04T08:48:51;21.63;;;16.87;;
27983;SDS011;15317;50.360;8.726;2023-12-04T08:53:54;21.13;;;16.93;;
27983;SDS011;15317;50.360;8.726;2023-12-04T08:58:57;22.63;;;17.53;;
27983;SDS011;15317;50.360;8.726;2023-12-04T09:04:02;22.30;;;18.30;;
27983;SDS011;15317;50.360;8.726;2023-12-04T09:09:06;22.70;;;17.70;;
27983;SDS011;15317;50.360;8.726;2023-12-04T09:14:14;21.77;;;17.17;;
27983;SDS011;15317;50.360;8.726;2023-12-04T09:19:19;22.10;;;16.80;;
27983;SDS011;15317;50.360;8.726;2023-12-04T09:24:22;21.57;;;17.17;;
27983;SDS011;15317;50.360;8.726;2023-12-04T09:29:25;19.93;;;17.33;;
27983;SDS011;15317;50.360;8.726;2023-12-04T09:34:30;21.00;;;17.90;;
27983;SDS011;15317;50.360;8.726;2023-12-04T09:39:33;19.97;;;16.13;;
27983;SDS011;15317;50.360;8.726;2023-12-04T09:44:37;22.40;;;17.27;;
27983;SDS011;15317;50.360;8.726;2023-12-04T09:49:41;19.77;;;16.30;;
27983;SDS011;15317;50.360;8.726;2023-12-04T09:54:45;20.47;;;15.80;;
27983;SDS011;15317;50.360;8.726;2023-12-04T09:59:48;19.60;;;16.13;;
27983;SDS011;15317;50.360;8.726;2023-12-04T10:04:54;18.23;;;15.93;;
27983;SDS011;15317;50.360;8.726;2023-12-04T10:09:57;20.73;;;16.07;;
27983;SDS011;15317;50.360;8.726;2023-12-04T10:15:04;20.07;;;16.80;;
27983;SDS011;15317;50.360;8.726;2023-12-04T10:20:11;21.73;;;16.37;;
27983;SDS011;15317;50.360;8.726;2023-12-04T10:25:19;17.20;;;15.17;;
27983;SDS011;15317;50.360;8.726;2023-12-04T10:30:23;29.37;;;16.53;;
27983;SDS011;15317;50.360;8.726;2023-12-04T10:35:30;20.03;;;16.87;;
27983;SDS011;15317;50.360;8.726;2023-12-04T10:40:35;19.37;;;15.87;;
27983;SDS011;15317;50.360;8.726;2023-12-04T10:45:40;20.30;;;16.93;;
27983;SDS011;15317;50.360;8.726;2023-12-04T10:50:47;18.80;;;16.13;;
27983;SDS011;15317;50.360;8.726;2023-12-04T10:55:52;19.70;;;16.40;;
27983;SDS011;15317;50.360;8.726;2023-12-04T11:00:59;19.77;;;15.77;;
27983;SDS011;15317;50.360;8.726;2023-12-04T11:06:08;20.80;;;17.03;;
27983;SDS011;15317;50.360;8.726;2023-12-04T11:11:15;22.77;;;16.13;;
27983;SDS011;15317;50.360;8.726;2023-12-04T11:16:22;21.60;;;16.97;;
27983;SDS011;15317;50.360;8.726;2023-12-04T11:21:31;22.67;;;17.50;;
27983;SDS011;15317;50.360;8.726;2023-12-04T11:26:36;19.67;;;16.30;;
27983;SDS011;15317;50.360;8.726;2023-12-04T11:31:40;21.93;;;16.90;;
27983;SDS011;15317;50.360;8.726;2023-12-04T11:36:46;20.47;;;17.03;;
27983;SDS011;15317;50.360;8.726;2023-12-04T11:41:49;20.83;;;16.77;;
27983;SDS011;15317;50.360;8.726;2023-12-04T11:46:56;18.70;;;16.37;;
27983;SDS011;15317;50.360;8.726;2023-12-04T11:52:03;19.93;;;16.60;;
27983;SDS011;15317;50.360;8.726;2023-12-04T11:57:19;18.63;;;16.23;;
27983;SDS011;15317;50.360;8.726;2023-12-04T12:02:24;19.83;;;15.33;;
27983;SDS011;15317;50.360;8.726;2023-12-04T12:07:29;17.70;;;15.10;;
27983;SDS011;15317;50.360;8.726;2023-12-04T12:12:32;20.37;;;15.33;;
27983;SDS011;15317;50.360;8.726;2023-12-04T12:17:38;17.83;;;15.13;;
27983;SDS011;15317;50.360;8.726;2023-12-04T12:22:43;19.83;;;15.60;;
27983;SDS011;15317;50.360;8.726;2023-12-04T12:27:48;16.60;;;14.80;;
27983;SDS011;15317;50.360;8.726;2023-12-04T12:32:51;18.43;;;15.80;;
27983;SDS011;15317;50.360;8.726;2023-12-04T12:37:56;20.67;;;16.93;;
27983;SDS011;15317;50.360;8.726;2023-12-04T12:43:03;20.80;;;16.80;;
27983;SDS011;15317;50.360;8.726;2023-12-04T12:48:10;19.73;;;16.77;;
27983;SDS011;15317;50.360;8.726;2023-12-04T12:53:15;22.40;;;17.10;;
27983;SDS011;15317;50.360;8.726;2023-12-04T12:58:20;21.07;;;18.00;;
27983;SDS011;15317;50.360;8.726;2023-12-04T13:03:23;22.87;;;18.53;;
27983;SDS011;15317;50.360;8.726;2023-12-04T13:08:28;21.83;;;16.87;;
27983;SDS011;15317;50.360;8.726;2023-12-04T13:13:31;19.20;;;16.50;;
27983;SDS011;15317;50.360;8.726;2023-12-04T13:18:34;21.43;;;16.20;;
27983;SDS011;15317;50.360;8.726;2023-12-04T13:23:41;21.73;;;16.73;;
27983;SDS011;15317;50.360;8.726;2023-12-04T13:28:44;19.90;;;16.70;;
27983;SDS011;15317;50.360;8.726;2023-12-04T13:33:49;21.97;;;17.77;;
27983;SDS011;15317;50.360;8.726;2023-12-04T13:38:53;24.80;;;19.17;;
27983;SDS011;15317;50.360;8.726;2023-12-04T13:43:57;23.10;;;18.50;;
27983;SDS011;15317;50.360;8.726;2023-12-04T13:49:01;25.40;;;19.07;;
27983;SDS011;15317;50.360;8.726;2023-12-04T13:54:06;22.93;;;18.90;;
27983;SDS011;15317;50.360;8.726;2023-12-04T13:59:22;26.00;;;19.57;;
27983;SDS011;15317;50.360;8.726;2023-12-04T14:04:26;25.60;;;19.47;;
27983;SDS011;15317;50.360;8.726;2023-12-04T14:09:31;25.70;;;20.07;;
27983;SDS011;15317;50.360;8.726;2023-12-04T14:14:34;24.93;;;19.70;;
27983;SDS011;15317;50.360;8.726;2023-12-04T14:19:39;25.50;;;19.03;;
27983;SDS011;15317;50.360;8.726;2023-12-04T14:24:44;26.33;;;18.93;;
27983;SDS011;15317;50.360;8.726;2023-12-04T14:29:47;27.53;;;19.40;;
27983;SDS011;15317;50.360;8.726;2023-12-04T14:34:51;29.17;;;20.87;;
27983;SDS011;15317;50.360;8.726;2023-12-04T14:39:55;26.97;;;19.97;;
27983;SDS011;15317;50.360;8.726;2023-12-04T14:44:58;25.77;;;20.00;;
27983;SDS011;15317;50.360;8.726;2023-12-04T14:50:03;27.83;;;20.63;;
27983;SDS011;15317;50.360;8.726;2023-12-04T14:55:09;26.93;;;20.73;;
27983;SDS011;15317;50.360;8.726;2023-12-04T15:00:27;25.63;;;20.37;;
27983;SDS011;15317;50.360;8.726;2023-12-04T15:06:09;27.20;;;21.33;;
27983;SDS011;15317;50.360;8.726;2023-12-04T15:11:45;29.03;;;22.27;;
27983;SDS011;15317;50.360;8.726;2023-12-04T15:17:13;36.00;;;22.33;;
27983;SDS011;15317;50.360;8.726;2023-12-04T15:22:30;29.47;;;22.60;;
27983;SDS011;15317;50.360;8.726;2023-12-04T15:27:36;28.10;;;20.83;;
27983;SDS011;15317;50.360;8.726;2023-12-04T15:32:39;30.93;;;21.93;;
27983;SDS011;15317;50.360;8.726;2023-12-04T15:37:42;33.27;;;23.40;;
27983;SDS011;15317;50.360;8.726;2023-12-04T15:42:47;30.03;;;22.60;;
27983;SDS011;15317;50.360;8.726;2023-12-04T15:47:50;30.57;;;22.13;;
27983;SDS011;15317;50.360;8.726;2023-12-04T15:52:55;31.83;;;23.77;;
27983;SDS011;15317;50.360;8.726;2023-12-04T15:58:00;30.43;;;24.27;;
27983;SDS011;15317;50.360;8.726;2023-12-04T16:03:04;30.73;;;22.73;;
27983;SDS011;15317;50.360;8.726;2023-12-04T16:08:08;32.33;;;23.63;;
27983;SDS011;15317;50.360;8.726;2023-12-04T16:13:12;31.63;;;23.07;;
27983;SDS011;15317;50.360;8.726;2023-12-04T16:18:18;35.17;;;24.13;;
27983;SDS011;15317;50.360;8.726;2023-12-04T16:23:21;33.53;;;22.83;;
27983;SDS011;15317;50.360;8.726;2023-12-04T16:28:26;29.10;;;22.60;;
27983;SDS011;15317;50.360;8.726;2023-12-04T16:33:29;32.37;;;24.23;;
27983;SDS011;15317;50.360;8.726;2023-12-04T16:38:33;29.27;;;23.23;;
27983;SDS011;15317;50.360;8.726;2023-12-04T16:43:37;33.43;;;24.87;;
27983;SDS011;15317;50.360;8.726;2023-12-04T16:48:40;32.40;;;23.17;;
27983;SDS011;15317;50.360;8.726;2023-12-04T16:53:46;32.17;;;24.47;;
27983;SDS011;15317;50.360;8.726;2023-12-04T16:58:50;33.20;;;24.23;;
27983;SDS011;15317;50.360;8.726;2023-12-04T17:03:53;33.80;;;25.47;;
27983;SDS011;15317;50.360;8.726;2023-12-04T17:08:57;35.13;;;25.47;;
27983;SDS011;15317;50.360;8.726;2023-12-04T17:14:02;34.13;;;25.10;;
27983;SDS011;15317;50.360;8.726;2023-12-04T17:19:05;34.63;;;24.00;;
27983;SDS011;15317;50.360;8.726;2023-12-04T17:24:09;32.87;;;25.27;;
27983;SDS011;15317;50.360;8.726;2023-12-04T17:29:14;34.77;;;25.43;;
27983;SDS011;15317;50.360;8.726;2023-12-04T17:34:17;34.50;;;25.83;;
27983;SDS011;15317;50.360;8.726;2023-12-04T17:39:21;35.70;;;25.47;;
27983;SDS011;15317;50.360;8.726;2023-12-04T17:44:25;33.20;;;26.10;;
27983;SDS011;15317;50.360;8.726;2023-12-04T17:49:28;36.77;;;25.97;;
27983;SDS011;15317;50.360;8.726;2023-12-04T17:54:32;34.33;;;25.73;;
27983;SDS011;15317;50.360;8.726;2023-12-04T17:59:36;37.63;;;27.27;;
27983;SDS011;15317;50.360;8.726;2023-12-04T18:04:41;35.50;;;25.93;;
27983;SDS011;15317;50.360;8.726;2023-12-04T18:09:45;38.30;;;26.63;;
27983;SDS011;15317;50.360;8.726;2023-12-04T18:14:49;36.10;;;26.13;;
27983;SDS011;15317;50.360;8.726;2023-12-04T18:19:53;38.03;;;27.17;;
27983;SDS011;15317;50.360;8.726;2023-12-04T18:24:57;37.10;;;26.17;;
27983;SDS011;15317;50.360;8.726;2023-12-04T18:30:03;38.37;;;26.93;;
27983;SDS011;15317;50.360;8.726;2023-12-04T18:35:08;38.03;;;27.03;;
27983;SDS011;15317;50.360;8.726;2023-12-04T18:40:12;36.53;;;26.73;;
27983;SDS011;15317;50.360;8.726;2023-12-04T18:45:17;32.47;;;25.30;;
27983;SDS011;15317;50.360;8.726;2023-12-04T18:50:21;32.57;;;24.93;;
27983;SDS011;15317;50.360;8.726;2023-12-04T18:55:25;36.80;;;26.50;;
27983;SDS011;15317;50.360;8.726;2023-12-04T19:00:29;39.47;;;28.97;;
27983;SDS011;15317;50.360;8.726;2023-12-04T19:05:32;37.33;;;28.57;;
27983;SDS011;15317;50.360;8.726;2023-12-04T19:10:36;39.47;;;27.83;;
27983;SDS011;15317;50.360;8.726;2023-12-04T19:15:40;45.27;;;30.80;;
27983;SDS011;15317;50.360;8.726;2023-12-04T19:20:44;48.40;;;35.13;;
27983;SDS011;15317;50.360;8.726;2023-12-04T19:25:47;40.83;;;29.73;;
27983;SDS011;15317;50.360;8.726;2023-12-04T19:30:54;39.57;;;29.43;;
27983;SDS011;15317;50.360;8.726;2023-12-04T19:35:57;39.03;;;28.87;;
27983;SDS011;15317;50.360;8.726;2023-12-04T19:41:00;43.30;;;31.63;;
27983;SDS011;15317;50.360;8.726;2023-12-04T19:46:06;44.93;;;30.23;;
27983;SDS011;15317;50.360;8.726;2023-12-04T19:51:09;43.63;;;31.23;;
27983;SDS011;15317;50.360;8.726;2023-12-04T19:56:13;46.67;;;32.93;;
27983;SDS011;15317;50.360;8.726;2023-12-04T20:01:24;47.70;;;32.00;;
27983;SDS011;15317;50.360;8.726;2023-12-04T20:06:27;46.50;;;32.20;;
27983;SDS011;15317;50.360;8.726;2023-12-04T20:11:31;43.70;;;30.27;;
27983;SDS011;15317;50.360;8.726;2023-12-04T20:16:36;43.00;;;31.63;;
27983;SDS011;15317;50.360;8.726;2023-12-04T20:21:39;41.80;;;31.00;;
27983;SDS011;15317;50.360;8.726;2023-12-04T20:26:44;47.60;;;33.57;;
27983;SDS011;15317;50.360;8.726;2023-12-04T20:31:50;44.77;;;32.03;;
27983;SDS011;15317;50.360;8.726;2023-12-04T20:36:54;43.63;;;31.77;;
27983;SDS011;15317;50.360;8.726;2023-12-04T20:41:58;45.23;;;32.30;;
27983;SDS011;15317;50.360;8.726;2023-12-04T20:47:02;41.30;;;31.50;;
27983;SDS011;15317;50.360;8.726;2023-12-04T20:52:06;44.07;;;31.03;;
27983;SDS011;15317;50.360;8.726;2023-12-04T20:57:10;41.30;;;32.27;;
27983;SDS011;15317;50.360;8.726;2023-12-04T21:02:14;40.70;;;29.70;;
27983;SDS011;15317;50.360;8.726;2023-12-04T21:07:17;36.17;;;28.83;;
27983;SDS011;15317;50.360;8.726;2023-12-04T21:12:21;37.07;;;28.70;;
27983;SDS011;15317;50.360;8.726;2023-12-04T21:17:26;37.97;;;29.17;;
27983;SDS011;15317;50.360;8.726;2023-12-04T21:22:29;39.43;;;30.07;;
27983;SDS011;15317;50.360;8.726;2023-12-04T21:27:32;37.20;;;29.40;;
27983;SDS011;15317;50.360;8.726;2023-12-04T21:32:37;35.10;;;29.63;;
27983;SDS011;15317;50.360;8.726;2023-12-04T21:37:40;37.80;;;29.40;;
27983;SDS011;15317;50.360;8.726;2023-12-04T21:42:43;34.90;;;28.07;;
27983;SDS011;15317;50.360;8.726;2023-12-04T21:47:48;34.27;;;28.13;;
27983;SDS011;15317;50.360;8.726;2023-12-04T21:52:52;36.87;;;28.53;;
27983;SDS011;15317;50.360;8.726;2023-12-04T21:57:55;32.03;;;27.03;;
27983;SDS011;15317;50.360;8.726;2023-12-04T22:03:00;33.23;;;27.03;;
27983;SDS011;15317;50.360;8.726;2023-12-04T22:08:03;32.47;;;26.03;;
27983;SDS011;15317;50.360;8.726;2023-12-04T22:13:06;32.60;;;26.70;;
27983;SDS011;15317;50.360;8.726;2023-12-04T22:18:11;32.80;;;26.47;;
27983;SDS011;15317;50.360;8.726;2023-12-04T22:23:15;33.90;;;27.00;;
27983;SDS011;15317;50.360;8.726;2023-12-04T22:28:19;34.07;;;27.30;;
27983;SDS011;15317;50.360;8.726;2023-12-04T22:33:24;34.10;;;27.10;;
27983;SDS011;15317;50.360;8.726;2023-12-04T22:38:27;32.13;;;26.90;;
27983;SDS011;15317;50.360;8.726;2023-12-04T22:43:31;34.27;;;26.80;;
27983;SDS011;15317;50.360;8.726;2023-12-04T22:48:35;31.43;;;26.43;;
27983;SDS011;15317;50.360;8.726;2023-12-04T22:53:40;32.40;;;27.83;;
27983;SDS011;15317;50.360;8.726;2023-12-04T22:58:43;34.87;;;27.67;;
27983;SDS011;15317;50.360;8.726;2023-12-04T23:03:48;33.00;;;27.07;;
27983;SDS011;15317;50.360;8.726;2023-12-04T23:08:52;34.40;;;26.33;;
27983;SDS011;15317;50.360;8.726;2023-12-04T23:13:56;36.47;;;27.37;;
27983;SDS011;15317;50.360;8.726;2023-12-04T23:19:00;34.07;;;26.87;;
27983;SDS011;15317;50.360;8.726;2023-12-04T23:24:05;36.47;;;28.20;;
27983;SDS011;15317;50.360;8.726;2023-12-04T23:29:09;33.97;;;27.13;;
27983;SDS011;15317;50.360;8.726;2023-12-04T23:34:13;33.90;;;26.70;;
27983;SDS011;15317;50.360;8.726;2023-12-04T23:39:17;34.87;;;27.83;;
27983;SDS011;15317;50.360;8.726;2023-12-04T23:44:20;33.57;;;27.23;;
27983;SDS011;15317;50.360;8.726;2023-12-04T23:49:25;36.23;;;28.40;;
27983;SDS011;15317;50.360;8.726;2023-12-04T23:54:28;36.90;;;27.47;;
27983;SDS011;15317;50.360;8.726;2023-12-04T23:59:31;35.97;;;27.97;;
